Time;durP1;ratioP1;P1;durP2;ratioP2;P2;SDS_P1;SDS_P2;PMS_P1;PMS_P2;Temp;Humidity;BMP_temperature;BMP_pressure;BME280_temperature;BME280_humidity;BME280_pressure;Samples;Min_cycle;Max_cycle;Signal;HPM_P1;HPM_P2
2021/08/14 00:00:11;;;;;;;7.70;4.88;;;;;;;;;;4953949;29;20433;-82
2021/08/14 00:02:37;;;;;;;8.63;4.90;;;;;;;;;;4953995;29;20035;-83
2021/08/14 00:05:04;;;;;;;7.80;4.93;;;;;;;;;;4953907;29;20568;-83
2021/08/14 00:07:30;;;;;;;7.53;4.82;;;;;;;;;;4953993;29;20027;-82
2021/08/14 00:09:56;;;;;;;6.65;4.43;;;;;;;;;;4955062;29;20031;-83
2021/08/14 00:12:22;;;;;;;8.02;4.75;;;;;;;;;;4953886;29;20074;-91
2021/08/14 00:14:49;;;;;;;9.10;5.00;;;;;;;;;;4953999;29;20027;-84
2021/08/14 00:17:15;;;;;;;8.07;5.00;;;;;;;;;;4954970;29;20039;-83
2021/08/14 00:19:41;;;;;;;9.68;4.50;;;;;;;;;;4953774;29;20476;-83
2021/08/14 00:22:07;;;;;;;7.45;4.50;;;;;;;;;;4953796;29;20401;-84
2021/08/14 00:24:33;;;;;;;9.13;5.13;;;;;;;;;;4953809;29;20034;-84
2021/08/14 00:27:00;;;;;;;7.82;5.25;;;;;;;;;;4955631;29;20035;-82
2021/08/14 00:29:26;;;;;;;6.80;4.30;;;;;;;;;;4954981;29;20083;-81
2021/08/14 00:31:52;;;;;;;12.07;5.22;;;;;;;;;;4954941;29;20110;-82
2021/08/14 00:34:19;;;;;;;9.20;5.20;;;;;;;;;;4954912;29;20030;-89
2021/08/14 00:36:45;;;;;;;13.02;5.22;;;;;;;;;;4954888;28;20543;-82
2021/08/14 00:39:11;;;;;;;8.68;5.35;;;;;;;;;;4955417;29;20461;-83
2021/08/14 00:41:38;;;;;;;7.93;4.90;;;;;;;;;;4956142;28;20019;-82
2021/08/14 00:44:04;;;;;;;7.85;5.05;;;;;;;;;;4958474;29;20051;-84
2021/08/14 00:46:31;;;;;;;9.13;5.18;;;;;;;;;;4957187;29;20020;-84
2021/08/14 00:48:58;;;;;;;8.32;5.70;;;;;;;;;;4957157;29;20027;-84
2021/08/14 00:51:24;;;;;;;9.02;4.97;;;;;;;;;;4956935;29;20037;-83
2021/08/14 00:53:50;;;;;;;7.10;4.88;;;;;;;;;;4958364;29;20397;-81
2021/08/14 00:56:20;;;;;;;7.75;4.90;;;;;;;;;;4957028;29;20031;-81
2021/08/14 00:58:47;;;;;;;9.05;5.30;;;;;;;;;;4958769;28;20039;-81
2021/08/14 01:01:13;;;;;;;7.22;5.05;;;;;;;;;;4958668;29;20508;-81
2021/08/14 01:03:39;;;;;;;8.75;5.47;;;;;;;;;;4956866;29;20031;-83
2021/08/14 01:06:05;;;;;;;7.95;5.50;;;;;;;;;;4956851;29;20023;-83
2021/08/14 01:08:31;;;;;;;7.63;5.35;;;;;;;;;;4958708;29;20038;-89
2021/08/14 01:10:58;;;;;;;8.07;5.72;;;;;;;;;;4956833;29;20119;-81
2021/08/14 01:13:25;;;;;;;20.73;5.78;;;;;;;;;;4956780;29;20035;-81
2021/08/14 01:15:51;;;;;;;8.35;5.55;;;;;;;;;;4956812;29;20066;-84
2021/08/14 01:18:20;;;;;;;9.80;4.97;;;;;;;;;;4956832;29;20046;-83
2021/08/14 01:20:47;;;;;;;7.88;5.20;;;;;;;;;;4958493;29;20122;-83
2021/08/14 01:23:14;;;;;;;9.65;5.55;;;;;;;;;;4957964;28;20050;-83
2021/08/14 01:25:40;;;;;;;10.43;5.75;;;;;;;;;;4956736;29;20397;-82
2021/08/14 01:28:07;;;;;;;8.77;4.88;;;;;;;;;;4956892;29;20038;-83
2021/08/14 01:30:33;;;;;;;8.50;5.38;;;;;;;;;;4958527;29;20023;-83
2021/08/14 01:33:00;;;;;;;9.85;5.30;;;;;;;;;;4958259;29;20372;-88
2021/08/14 01:35:26;;;;;;;13.27;5.40;;;;;;;;;;4957919;29;20023;-83
2021/08/14 01:37:52;;;;;;;7.03;5.05;;;;;;;;;;4956399;29;20544;-83
2021/08/14 01:40:18;;;;;;;13.05;6.25;;;;;;;;;;4956461;29;20105;-81
2021/08/14 01:42:45;;;;;;;8.00;5.82;;;;;;;;;;4958161;29;20082;-91
2021/08/14 01:45:11;;;;;;;8.77;5.20;;;;;;;;;;4957121;29;20055;-83
2021/08/14 01:47:37;;;;;;;8.60;5.60;;;;;;;;;;4956419;29;20400;-82
2021/08/14 01:50:03;;;;;;;8.63;5.60;;;;;;;;;;4956154;29;20030;-90
2021/08/14 01:52:30;;;;;;;8.23;5.35;;;;;;;;;;4955346;28;20054;-81
2021/08/14 01:54:56;;;;;;;8.10;5.65;;;;;;;;;;4957516;29;20032;-83
2021/08/14 01:57:23;;;;;;;8.82;6.18;;;;;;;;;;4956225;29;20489;-82
2021/08/14 01:59:49;;;;;;;8.20;5.50;;;;;;;;;;4956156;29;20090;-89
2021/08/14 02:02:16;;;;;;;8.23;5.55;;;;;;;;;;4956197;29;20023;-83
2021/08/14 02:04:42;;;;;;;10.77;6.38;;;;;;;;;;4956224;29;20078;-91
2021/08/14 02:07:08;;;;;;;9.07;5.78;;;;;;;;;;4956688;29;20031;-83
2021/08/14 02:09:34;;;;;;;8.35;5.60;;;;;;;;;;4956164;29;20031;-84
2021/08/14 02:12:00;;;;;;;8.95;5.95;;;;;;;;;;4955811;29;20031;-83
2021/08/14 02:14:26;;;;;;;10.50;5.90;;;;;;;;;;4955934;29;20464;-83
2021/08/14 02:16:53;;;;;;;9.40;5.43;;;;;;;;;;4955707;29;20031;-88
2021/08/14 02:19:19;;;;;;;13.68;6.10;;;;;;;;;;4957655;29;20035;-89
2021/08/14 02:21:46;;;;;;;8.82;5.32;;;;;;;;;;4955517;29;20023;-82
2021/08/14 02:24:12;;;;;;;8.98;5.43;;;;;;;;;;4956931;29;20035;-82
2021/08/14 02:26:38;;;;;;;10.52;6.25;;;;;;;;;;4955475;29;20027;-83
2021/08/14 02:29:04;;;;;;;9.35;6.15;;;;;;;;;;4955912;29;20472;-91
2021/08/14 02:31:30;;;;;;;9.77;5.97;;;;;;;;;;4955564;29;20400;-84
2021/08/14 02:33:58;;;;;;;12.65;5.95;;;;;;;;;;4955315;29;20030;-89
2021/08/14 02:36:24;;;;;;;8.98;6.32;;;;;;;;;;4955490;29;20071;-83
2021/08/14 02:38:50;;;;;;;8.82;6.05;;;;;;;;;;4955124;29;20031;-81
2021/08/14 02:41:16;;;;;;;8.93;6.10;;;;;;;;;;4955126;29;20070;-82
2021/08/14 02:43:43;;;;;;;12.65;6.13;;;;;;;;;;4956818;29;20049;-82
2021/08/14 02:46:09;;;;;;;7.90;5.93;;;;;;;;;;4955322;29;20058;-91
2021/08/14 02:48:35;;;;;;;11.57;6.75;;;;;;;;;;4955086;29;20397;-81
2021/08/14 02:51:02;;;;;;;10.30;5.75;;;;;;;;;;4956265;29;20038;-82
2021/08/14 02:53:28;;;;;;;9.80;6.18;;;;;;;;;;4955123;28;20058;-89
2021/08/14 02:55:54;;;;;;;9.68;5.88;;;;;;;;;;4956400;29;20067;-84
2021/08/14 02:58:20;;;;;;;11.35;6.10;;;;;;;;;;4954747;29;20039;-83
2021/08/14 03:00:46;;;;;;;9.55;6.10;;;;;;;;;;4955123;29;20082;-83
2021/08/14 03:03:13;;;;;;;10.02;6.57;;;;;;;;;;4954730;28;20070;-82
2021/08/14 03:05:40;;;;;;;8.93;5.85;;;;;;;;;;4955267;28;20038;-83
2021/08/14 03:08:08;;;;;;;14.65;6.63;;;;;;;;;;4954615;29;20143;-82
2021/08/14 03:10:34;;;;;;;10.00;6.80;;;;;;;;;;4954535;29;20042;-84
2021/08/14 03:13:00;;;;;;;9.60;6.63;;;;;;;;;;4954856;29;20497;-89
2021/08/14 03:15:26;;;;;;;11.68;7.20;;;;;;;;;;4956522;29;20031;-83
2021/08/14 03:17:54;;;;;;;9.27;5.75;;;;;;;;;;4954782;29;20497;-83
2021/08/14 03:20:20;;;;;;;9.98;5.90;;;;;;;;;;4955148;29;20543;-83
2021/08/14 03:22:47;;;;;;;9.77;6.53;;;;;;;;;;4954579;29;20063;-89
2021/08/14 03:25:13;;;;;;;8.73;6.30;;;;;;;;;;4954598;29;20034;-85
2021/08/14 03:27:39;;;;;;;9.77;6.03;;;;;;;;;;4954961;29;20032;-82
2021/08/14 03:30:05;;;;;;;8.85;6.35;;;;;;;;;;4956130;29;20428;-83
2021/08/14 03:32:32;;;;;;;8.43;6.03;;;;;;;;;;4954355;29;20035;-83
2021/08/14 03:34:58;;;;;;;9.70;6.60;;;;;;;;;;4954213;29;20020;-81
2021/08/14 03:37:24;;;;;;;9.20;6.20;;;;;;;;;;4954149;29;20058;-83
2021/08/14 03:39:50;;;;;;;9.88;6.88;;;;;;;;;;4956444;29;20020;-91
2021/08/14 03:42:16;;;;;;;10.60;5.93;;;;;;;;;;4955064;29;20401;-82
2021/08/14 03:44:42;;;;;;;11.25;6.18;;;;;;;;;;4955477;29;20469;-83
2021/08/14 03:47:08;;;;;;;9.52;6.57;;;;;;;;;;4954450;29;20035;-84
2021/08/14 03:49:34;;;;;;;10.52;6.57;;;;;;;;;;4954368;29;20114;-82
2021/08/14 03:52:01;;;;;;;9.80;6.35;;;;;;;;;;4954229;29;20155;-82
2021/08/14 03:54:27;;;;;;;10.70;6.32;;;;;;;;;;4955933;29;20110;-84
2021/08/14 03:56:54;;;;;;;10.80;6.78;;;;;;;;;;4954137;29;20490;-87
2021/08/14 03:59:20;;;;;;;11.68;6.28;;;;;;;;;;4955776;28;20031;-82
2021/08/14 04:01:46;;;;;;;10.38;5.88;;;;;;;;;;4954516;29;20118;-82
2021/08/14 04:04:12;;;;;;;12.45;6.57;;;;;;;;;;4955202;29;20453;-87
2021/08/14 04:06:38;;;;;;;9.25;6.30;;;;;;;;;;4955899;29;20038;-87
2021/08/14 04:09:04;;;;;;;10.07;6.35;;;;;;;;;;4954066;29;20027;-82
2021/08/14 04:11:30;;;;;;;9.40;6.70;;;;;;;;;;4954058;29;20039;-84
2021/08/14 04:13:56;;;;;;;12.85;6.80;;;;;;;;;;4953990;29;20074;-86
2021/08/14 04:16:23;;;;;;;10.50;6.65;;;;;;;;;;4958154;28;20024;-88
2021/08/14 04:18:49;;;;;;;10.90;6.20;;;;;;;;;;4958296;29;20061;-88
2021/08/14 04:21:15;;;;;;;10.55;6.75;;;;;;;;;;4957952;29;20023;-87
2021/08/14 04:23:41;;;;;;;10.48;6.90;;;;;;;;;;4959838;29;20035;-85
2021/08/14 04:26:10;;;;;;;9.73;6.90;;;;;;;;;;4959414;29;20090;-82
2021/08/14 04:28:36;;;;;;;8.32;6.22;;;;;;;;;;4958404;29;20027;-83
2021/08/14 04:31:02;;;;;;;17.55;8.60;;;;;;;;;;4959424;29;20039;-85
2021/08/14 04:33:28;;;;;;;16.63;8.82;;;;;;;;;;4957580;29;20023;-83
2021/08/14 04:35:54;;;;;;;17.95;9.18;;;;;;;;;;4957528;29;20035;-86
2021/08/14 04:38:20;;;;;;;18.83;9.52;;;;;;;;;;4957428;29;20035;-86
2021/08/14 04:40:46;;;;;;;16.25;8.98;;;;;;;;;;4957685;29;20486;-86
2021/08/14 04:43:13;;;;;;;18.73;9.93;;;;;;;;;;4959109;29;20425;-86
2021/08/14 04:45:39;;;;;;;15.27;9.52;;;;;;;;;;4957321;29;20031;-87
2021/08/14 04:48:05;;;;;;;16.02;9.05;;;;;;;;;;4957332;29;20027;-86
2021/08/14 04:50:31;;;;;;;13.68;8.65;;;;;;;;;;4957175;29;20033;-86
2021/08/14 04:52:57;;;;;;;33.78;9.90;;;;;;;;;;4956961;29;20086;-86
2021/08/14 04:55:23;;;;;;;19.10;9.25;;;;;;;;;;4957162;29;20396;-86
2021/08/14 04:57:49;;;;;;;15.85;7.75;;;;;;;;;;4958303;28;20031;-87
2021/08/14 05:00:16;;;;;;;13.85;7.28;;;;;;;;;;4957098;29;20042;-87
2021/08/14 05:02:42;;;;;;;13.75;7.53;;;;;;;;;;4957163;29;20067;-88
2021/08/14 05:05:08;;;;;;;12.68;7.10;;;;;;;;;;4957269;29;20121;-88
2021/08/14 05:07:35;;;;;;;14.23;6.50;;;;;;;;;;4958443;29;20027;-89
2021/08/14 05:10:01;;;;;;;8.27;4.80;;;;;;;;;;4957046;29;20038;-87
2021/08/14 05:12:27;;;;;;;9.27;4.30;;;;;;;;;;4957009;29;20027;-87
2021/08/14 05:14:53;;;;;;;9.43;4.35;;;;;;;;;;4956889;29;20150;-87
2021/08/14 05:17:19;;;;;;;8.55;3.85;;;;;;;;;;4957094;29;20047;-89
2021/08/14 05:19:46;;;;;;;7.68;4.47;;;;;;;;;;4957006;29;20042;-89
2021/08/14 05:22:12;;;;;;;9.18;4.95;;;;;;;;;;4957898;29;20027;-88
2021/08/14 05:24:38;;;;;;;11.27;5.40;;;;;;;;;;4956619;29;20034;-89
2021/08/14 05:27:04;;;;;;;10.32;5.40;;;;;;;;;;4955550;28;20063;-89
2021/08/14 05:29:31;;;;;;;7.43;4.90;;;;;;;;;;4956194;29;20377;-88
2021/08/14 05:31:57;;;;;;;7.25;4.22;;;;;;;;;;4956290;29;20480;-96
2021/08/14 05:34:23;;;;;;;9.50;5.03;;;;;;;;;;4956859;29;20031;-89
2021/08/14 05:36:49;;;;;;;9.63;5.18;;;;;;;;;;4955475;29;20509;-90
2021/08/14 05:39:15;;;;;;;15.48;4.63;;;;;;;;;;4957503;29;20039;-88
2021/08/14 05:41:42;;;;;;;10.48;5.25;;;;;;;;;;4955804;29;20445;-89
2021/08/14 05:44:08;;;;;;;11.38;4.75;;;;;;;;;;4961137;29;20035;-89
2021/08/14 05:46:40;;;;;;;15.73;4.38;;;;;;;;;;4959151;29;20031;-88
2021/08/14 05:49:06;;;;;;;8.15;4.60;;;;;;;;;;4955583;29;20027;-86
2021/08/14 05:51:32;;;;;;;11.75;4.35;;;;;;;;;;4955449;29;20047;-85
2021/08/14 05:53:58;;;;;;;6.55;4.35;;;;;;;;;;4955491;29;20047;-86
2021/08/14 05:56:24;;;;;;;6.97;3.88;;;;;;;;;;4956032;29;20035;-83
2021/08/14 05:58:50;;;;;;;5.70;3.47;;;;;;;;;;4955820;29;20444;-86
2021/08/14 06:01:16;;;;;;;5.47;3.42;;;;;;;;;;4956016;29;20082;-85
2021/08/14 06:03:42;;;;;;;7.55;3.10;;;;;;;;;;4955922;29;20042;-86
2021/08/14 06:06:09;;;;;;;6.70;3.00;;;;;;;;;;4957568;29;20024;-85
2021/08/14 06:08:35;;;;;;;7.63;3.40;;;;;;;;;;4955365;29;20033;-86
2021/08/14 06:11:02;;;;;;;7.18;3.20;;;;;;;;;;4955092;29;20075;-86
2021/08/14 06:13:28;;;;;;;7.10;3.25;;;;;;;;;;4955279;29;20032;-85
2021/08/14 06:15:54;;;;;;;4.97;2.80;;;;;;;;;;4955599;29;20035;-87
2021/08/14 06:18:20;;;;;;;5.50;3.08;;;;;;;;;;4955528;29;20070;-87
2021/08/14 06:20:47;;;;;;;5.85;3.35;;;;;;;;;;4956690;29;20031;-87
2021/08/14 06:23:13;;;;;;;8.80;3.20;;;;;;;;;;4956734;29;20023;-87
2021/08/14 06:25:39;;;;;;;4.13;2.97;;;;;;;;;;4956625;29;20035;-88
2021/08/14 06:28:06;;;;;;;12.35;2.83;;;;;;;;;;4955459;29;20039;-87
2021/08/14 06:30:32;;;;;;;4.47;2.90;;;;;;;;;;4956544;29;20114;-87
2021/08/14 06:32:58;;;;;;;5.25;2.67;;;;;;;;;;4957105;29;20421;-87
2021/08/14 06:35:25;;;;;;;4.38;3.03;;;;;;;;;;4957028;29;20031;-88
2021/08/14 06:37:51;;;;;;;4.22;2.85;;;;;;;;;;4956425;29;20126;-87
2021/08/14 06:40:17;;;;;;;9.32;3.28;;;;;;;;;;4955171;28;20045;-85
2021/08/14 06:42:43;;;;;;;4.38;3.00;;;;;;;;;;4955202;29;20027;-88
2021/08/14 06:45:09;;;;;;;5.47;3.20;;;;;;;;;;4954993;29;20432;-86
2021/08/14 06:47:35;;;;;;;4.93;3.00;;;;;;;;;;4955813;29;20027;-85
2021/08/14 06:50:02;;;;;;;7.35;3.05;;;;;;;;;;4955152;29;20023;-85
2021/08/14 06:52:28;;;;;;;4.57;3.15;;;;;;;;;;4954799;28;20131;-86
2021/08/14 06:54:54;;;;;;;3.45;2.72;;;;;;;;;;4954880;29;20054;-88
2021/08/14 06:57:20;;;;;;;3.97;3.00;;;;;;;;;;4956062;29;20071;-87
2021/08/14 06:59:47;;;;;;;5.05;3.28;;;;;;;;;;4956664;29;20054;-86
2021/08/14 07:02:15;;;;;;;5.10;2.80;;;;;;;;;;4954894;29;20031;-89
2021/08/14 07:04:41;;;;;;;5.95;3.13;;;;;;;;;;4954885;29;20031;-87
2021/08/14 07:07:07;;;;;;;7.32;3.00;;;;;;;;;;4955075;29;20027;-89
2021/08/14 07:09:36;;;;;;;5.03;3.05;;;;;;;;;;4956104;29;20034;-91
2021/08/14 07:12:02;;;;;;;9.43;3.25;;;;;;;;;;4955681;29;20023;-89
2021/08/14 07:14:28;;;;;;;5.80;2.90;;;;;;;;;;4954865;29;20023;-88
2021/08/14 07:16:55;;;;;;;6.85;3.00;;;;;;;;;;4955358;29;20122;-88
2021/08/14 07:19:21;;;;;;;4.13;2.95;;;;;;;;;;4954533;29;20182;-88
2021/08/14 07:21:47;;;;;;;5.05;2.85;;;;;;;;;;4954384;29;20436;-88
2021/08/14 07:24:13;;;;;;;7.40;3.17;;;;;;;;;;4954467;29;20433;-89
2021/08/14 07:26:40;;;;;;;6.05;3.10;;;;;;;;;;4955631;28;20058;-88
2021/08/14 07:29:06;;;;;;;6.03;2.85;;;;;;;;;;4954458;29;20028;-90
2021/08/14 07:31:32;;;;;;;13.90;3.83;;;;;;;;;;4954432;29;20444;-88
2021/08/14 07:33:58;;;;;;;4.90;3.28;;;;;;;;;;4954352;29;20488;-88
2021/08/14 07:36:25;;;;;;;5.13;3.05;;;;;;;;;;4954282;29;20491;-89
2021/08/14 07:38:51;;;;;;;7.45;3.17;;;;;;;;;;4955996;29;20035;-88
2021/08/14 07:41:17;;;;;;;4.93;2.90;;;;;;;;;;4956011;28;20031;-88
2021/08/14 07:43:43;;;;;;;5.43;2.92;;;;;;;;;;4955988;29;20055;-89
2021/08/14 07:46:10;;;;;;;4.65;2.95;;;;;;;;;;4954238;29;20114;-89
2021/08/14 07:48:36;;;;;;;7.10;3.10;;;;;;;;;;4954071;29;20058;-89
2021/08/14 07:51:02;;;;;;;9.18;2.92;;;;;;;;;;4954711;28;20473;-88
2021/08/14 07:53:29;;;;;;;5.55;3.28;;;;;;;;;;4953778;28;20051;-89
2021/08/14 07:55:55;;;;;;;7.05;3.63;;;;;;;;;;4953960;29;20034;-88
2021/08/14 07:58:21;;;;;;;6.07;2.70;;;;;;;;;;4953910;29;20082;-89
2021/08/14 08:00:47;;;;;;;11.13;3.40;;;;;;;;;;4953960;29;20058;-88
2021/08/14 08:03:16;;;;;;;5.97;3.13;;;;;;;;;;4956258;29;20029;-89
2021/08/14 08:05:42;;;;;;;4.85;2.88;;;;;;;;;;4954394;29;20027;-90
2021/08/14 08:08:08;;;;;;;6.35;3.00;;;;;;;;;;4955043;29;20377;-93
2021/08/14 08:10:35;;;;;;;7.05;3.17;;;;;;;;;;4954336;29;20028;-88
2021/08/14 08:13:02;;;;;;;5.65;3.08;;;;;;;;;;4954323;29;20163;-89
2021/08/14 08:15:28;;;;;;;6.63;2.63;;;;;;;;;;4954354;29;20024;-88
2021/08/14 08:17:54;;;;;;;4.22;2.72;;;;;;;;;;4954141;29;20441;-88
2021/08/14 08:20:21;;;;;;;5.20;3.38;;;;;;;;;;4955652;29;20027;-89
2021/08/14 08:22:48;;;;;;;4.15;3.17;;;;;;;;;;4954053;29;20050;-88
2021/08/14 08:25:14;;;;;;;6.00;2.65;;;;;;;;;;4953749;29;20065;-87
2021/08/14 08:27:43;;;;;;;3.97;3.15;;;;;;;;;;4954428;29;20031;-87
2021/08/14 08:30:10;;;;;;;7.60;3.38;;;;;;;;;;4953386;29;20042;-87
2021/08/14 08:32:36;;;;;;;8.63;3.53;;;;;;;;;;4953620;29;20396;-90
2021/08/14 08:35:03;;;;;;;7.28;3.40;;;;;;;;;;4954070;29;20059;-89
2021/08/14 08:37:29;;;;;;;6.30;3.20;;;;;;;;;;4954636;29;20504;-89
2021/08/14 08:39:55;;;;;;;4.80;3.38;;;;;;;;;;4952963;29;20066;-91
2021/08/14 08:42:22;;;;;;;7.00;3.38;;;;;;;;;;4953816;29;20019;-89
2021/08/14 08:44:48;;;;;;;5.95;3.20;;;;;;;;;;4954708;29;20031;-88
2021/08/14 08:47:16;;;;;;;7.18;3.30;;;;;;;;;;4954429;28;20027;-87
2021/08/14 08:49:53;;;;;;;6.13;3.10;;;;;;;;;;4953642;29;20027;-87
2021/08/14 08:52:20;;;;;;;4.38;2.90;;;;;;;;;;4953871;28;20078;-89
2021/08/14 08:54:47;;;;;;;4.60;2.88;;;;;;;;;;4953807;29;20035;-86
2021/08/14 08:57:13;;;;;;;9.20;3.30;;;;;;;;;;4954182;29;20031;-89
2021/08/14 08:59:40;;;;;;;6.22;3.60;;;;;;;;;;4954625;29;20034;-87
2021/08/14 09:02:20;;;;;;;7.70;3.20;;;;;;;;;;4953707;28;20038;-88
2021/08/14 09:04:46;;;;;;;8.18;3.10;;;;;;;;;;4958265;29;20019;-89
2021/08/14 09:07:26;;;;;;;9.60;4.60;;;;;;;;;;4957026;29;20400;-92
2021/08/14 09:09:57;;;;;;;6.60;3.50;;;;;;;;;;4957797;29;20110;-92
2021/08/14 09:12:31;;;;;;;5.90;3.38;;;;;;;;;;4958982;29;20050;-93
2021/08/14 09:14:57;;;;;;;6.05;3.20;;;;;;;;;;4958060;29;20031;-92
2021/08/14 09:17:27;;;;;;;6.40;3.65;;;;;;;;;;4958015;29;20066;-92
2021/08/14 09:20:10;;;;;;;5.75;3.63;;;;;;;;;;4957889;29;20051;-94
2021/08/14 09:22:36;;;;;;;5.97;3.30;;;;;;;;;;4957382;29;20035;-88
2021/08/14 09:25:15;;;;;;;6.30;3.50;;;;;;;;;;4956609;29;20027;-88
2021/08/14 09:27:54;;;;;;;4.72;3.38;;;;;;;;;;4956565;29;20500;-90
2021/08/14 09:30:20;;;;;;;6.15;3.75;;;;;;;;;;4956603;29;20118;-89
2021/08/14 09:33:08;;;;;;;7.70;3.47;;;;;;;;;;4956571;29;20384;-88
2021/08/14 09:35:35;;;;;;;5.75;3.97;;;;;;;;;;4956508;29;20035;-95
2021/08/14 09:38:05;;;;;;;6.65;3.65;;;;;;;;;;4956309;29;20069;-88
2021/08/14 09:40:42;;;;;;;7.13;3.23;;;;;;;;;;4956372;29;20027;-86
2021/08/14 09:43:08;;;;;;;4.85;3.25;;;;;;;;;;4956304;29;20636;-90
2021/08/14 09:45:35;;;;;;;5.10;3.75;;;;;;;;;;4957434;29;20032;-88
2021/08/14 09:48:15;;;;;;;7.53;3.50;;;;;;;;;;4956262;29;20031;-89
2021/08/14 09:50:42;;;;;;;8.30;3.80;;;;;;;;;;4957889;29;20051;-89
2021/08/14 09:53:15;;;;;;;4.40;3.08;;;;;;;;;;4956148;28;20470;-87
2021/08/14 09:55:42;;;;;;;5.43;3.13;;;;;;;;;;4956343;29;20463;-87
2021/08/14 09:58:09;;;;;;;6.00;3.70;;;;;;;;;;4956383;29;20065;-87
2021/08/14 10:00:36;;;;;;;5.15;3.63;;;;;;;;;;4956684;29;20119;-87
2021/08/14 10:03:03;;;;;;;9.50;3.38;;;;;;;;;;4964096;29;20035;-90
2021/08/14 10:05:32;;;;;;;6.75;3.80;;;;;;;;;;4991377;23;20058;-93
2021/08/14 10:07:59;;;;;;;5.95;3.30;;;;;;;;;;4977706;28;20116;-88
2021/08/14 10:10:25;;;;;;;7.88;3.33;;;;;;;;;;4975297;28;20034;-92
2021/08/14 10:12:52;;;;;;;5.53;3.20;;;;;;;;;;4975719;28;20034;-90
2021/08/14 10:15:18;;;;;;;5.72;3.30;;;;;;;;;;4975032;28;20035;-91
2021/08/14 10:17:44;;;;;;;5.22;3.35;;;;;;;;;;4975146;28;20035;-92
2021/08/14 10:20:11;;;;;;;15.30;3.90;;;;;;;;;;4975269;28;20125;-92
2021/08/14 10:22:37;;;;;;;7.47;3.53;;;;;;;;;;4975587;28;20034;-91
2021/08/14 10:25:03;;;;;;;9.75;3.00;;;;;;;;;;4976767;28;20032;-91
2021/08/14 10:27:49;;;;;;;5.72;3.60;;;;;;;;;;4975123;28;20031;-91
2021/08/14 10:30:35;;;;;;;6.50;3.55;;;;;;;;;;4974837;28;20030;-91
2021/08/14 10:33:02;;;;;;;7.93;3.65;;;;;;;;;;4974855;28;20044;-90
2021/08/14 10:35:29;;;;;;;18.05;3.80;;;;;;;;;;4976118;28;20025;-90
2021/08/14 10:37:55;;;;;;;10.05;3.53;;;;;;;;;;4974766;28;20125;-91
2021/08/14 10:40:21;;;;;;;8.45;3.33;;;;;;;;;;4974580;28;20447;-89
2021/08/14 10:42:53;;;;;;;7.93;3.58;;;;;;;;;;4974434;28;20077;-89
2021/08/14 10:45:20;;;;;;;6.22;3.47;;;;;;;;;;4973874;28;20023;-86
2021/08/14 10:47:47;;;;;;;14.35;3.60;;;;;;;;;;4974535;28;20058;-89
2021/08/14 10:50:31;;;;;;;8.30;3.55;;;;;;;;;;4975498;28;20424;-88
2021/08/14 10:53:10;;;;;;;4.38;3.20;;;;;;;;;;4974427;28;20073;-88
2021/08/14 10:55:36;;;;;;;5.63;3.83;;;;;;;;;;4974374;28;20035;-90
2021/08/14 10:58:18;;;;;;;23.52;14.30;;;;;;;;;;4974112;28;20038;-88
2021/08/14 11:00:44;;;;;;;8.35;3.60;;;;;;;;;;4974852;28;20031;-90
2021/08/14 11:03:11;;;;;;;7.35;3.83;;;;;;;;;;4975925;28;20031;-91
2021/08/14 11:05:39;;;;;;;5.35;3.60;;;;;;;;;;4974867;28;20047;-89
2021/08/14 11:08:31;;;;;;;10.57;4.53;;;;;;;;;;4975191;28;20499;-92
2021/08/14 11:10:58;;;;;;;6.88;3.80;;;;;;;;;;4970953;28;20085;-94
2021/08/14 11:13:36;;;;;;;13.48;10.38;;;;;;;;;;4974771;28;20033;-94
2021/08/14 11:16:03;;;;;;;22.13;5.53;;;;;;;;;;4975300;28;20034;-95
2021/08/14 11:19:04;;;;;;;12.30;5.75;;;;;;;;;;4975028;28;20031;-90
2021/08/14 11:21:47;;;;;;;12.60;7.00;;;;;;;;;;4882721;29;20115;-93
2021/08/14 11:24:37;;;;;;;6.75;3.80;;;;;;;;;;4966847;28;20046;-92
2021/08/14 11:27:17;;;;;;;7.82;3.67;;;;;;;;;;4974614;28;20031;-94
2021/08/14 11:29:44;;;;;;;10.65;3.95;;;;;;;;;;4974671;28;20027;-95
2021/08/14 11:32:11;;;;;;;6.80;4.20;;;;;;;;;;4974771;28;20027;-91
2021/08/14 11:34:38;;;;;;;9.75;3.88;;;;;;;;;;4977408;28;20034;-88
2021/08/14 11:37:05;;;;;;;9.18;4.10;;;;;;;;;;4974817;28;20027;-89
2021/08/14 11:39:31;;;;;;;6.30;3.67;;;;;;;;;;4973574;28;20046;-89
2021/08/14 11:41:57;;;;;;;12.63;5.25;;;;;;;;;;4974039;28;20050;-91
2021/08/14 17:45:37;;;;;;;13.88;4.47;;;;;;;;;;5113555;27;20417;-96
2021/08/14 17:48:03;;;;;;;11.18;4.97;;;;;;;;;;5111415;28;20431;-91
2021/08/14 17:50:30;;;;;;;9.07;4.10;;;;;;;;;;5111148;28;20144;-91
2021/08/14 17:52:56;;;;;;;10.77;4.55;;;;;;;;;;5111182;28;20069;-93
2021/08/14 17:55:22;;;;;;;8.77;4.63;;;;;;;;;;5111745;28;20120;-93
2021/08/14 17:57:48;;;;;;;10.50;4.13;;;;;;;;;;5110945;28;20036;-90
2021/08/14 18:00:14;;;;;;;8.63;3.85;;;;;;;;;;5111359;28;20115;-91
2021/08/14 18:02:43;;;;;;;12.38;4.13;;;;;;;;;;5111877;28;20032;-90
2021/08/14 18:05:10;;;;;;;9.77;3.88;;;;;;;;;;5110758;28;20556;-92
2021/08/14 18:07:36;;;;;;;7.00;3.80;;;;;;;;;;5110956;28;20016;-92
2021/08/14 18:10:03;;;;;;;6.15;3.70;;;;;;;;;;5110610;28;20027;-91
2021/08/14 18:12:30;;;;;;;6.93;3.80;;;;;;;;;;5111155;28;20028;-89
2021/08/14 18:14:57;;;;;;;13.45;4.30;;;;;;;;;;5110545;28;20043;-91
2021/08/14 18:17:23;;;;;;;7.55;4.30;;;;;;;;;;5111333;28;20032;-90
2021/08/14 18:19:49;;;;;;;8.32;4.38;;;;;;;;;;5110638;28;20024;-90
2021/08/14 18:22:15;;;;;;;11.20;4.80;;;;;;;;;;5110305;28;20073;-92
2021/08/14 18:24:42;;;;;;;12.75;5.03;;;;;;;;;;5110880;28;20477;-93
2021/08/14 18:27:08;;;;;;;11.63;5.25;;;;;;;;;;5110812;28;20047;-92
2021/08/14 18:29:34;;;;;;;11.38;5.28;;;;;;;;;;5111486;28;20055;-93
2021/08/14 18:32:01;;;;;;;10.90;4.90;;;;;;;;;;5110023;28;20020;-87
2021/08/14 18:34:27;;;;;;;13.43;5.38;;;;;;;;;;5112128;28;20032;-93
2021/08/14 18:36:54;;;;;;;9.45;4.80;;;;;;;;;;5110477;28;20024;-92
2021/08/14 18:39:21;;;;;;;12.52;4.80;;;;;;;;;;5110577;28;20024;-90
2021/08/14 18:41:48;;;;;;;12.40;5.88;;;;;;;;;;5110037;28;20020;-92
2021/08/14 18:44:14;;;;;;;8.98;5.28;;;;;;;;;;5110015;28;20139;-91
2021/08/14 18:46:40;;;;;;;12.63;4.97;;;;;;;;;;5109872;28;20027;-93
2021/08/14 18:49:07;;;;;;;9.75;5.32;;;;;;;;;;5110761;28;20498;-92
2021/08/14 18:51:33;;;;;;;12.25;4.72;;;;;;;;;;5109982;28;20044;-93
2021/08/14 18:53:59;;;;;;;8.30;5.22;;;;;;;;;;5109112;28;20038;-87
2021/08/14 18:56:26;;;;;;;9.75;5.30;;;;;;;;;;5097281;28;20118;-86
2021/08/14 18:58:52;;;;;;;12.95;5.63;;;;;;;;;;5095096;28;20020;-86
2021/08/14 19:01:18;;;;;;;10.48;5.97;;;;;;;;;;5094734;28;20028;-84
2021/08/14 19:03:44;;;;;;;17.55;5.85;;;;;;;;;;5095999;28;20069;-85
2021/08/14 19:06:10;;;;;;;9.20;5.80;;;;;;;;;;5096003;28;20123;-85
2021/08/14 19:08:36;;;;;;;13.35;6.00;;;;;;;;;;5096112;28;20031;-87
2021/08/14 19:11:02;;;;;;;9.82;5.93;;;;;;;;;;5096209;28;20460;-86
2021/08/14 19:13:28;;;;;;;12.80;6.30;;;;;;;;;;5096272;28;20029;-86
2021/08/14 19:15:55;;;;;;;8.13;5.15;;;;;;;;;;5094986;28;20036;-86
2021/08/14 19:18:21;;;;;;;9.20;5.97;;;;;;;;;;5097395;28;20023;-87
2021/08/14 19:20:48;;;;;;;10.40;6.13;;;;;;;;;;5094665;28;20374;-88
2021/08/14 19:23:19;;;;;;;12.45;5.75;;;;;;;;;;5095361;28;20027;-88
2021/08/14 19:25:46;;;;;;;9.68;5.65;;;;;;;;;;5095823;28;20016;-84
2021/08/14 19:28:12;;;;;;;8.70;5.55;;;;;;;;;;5096120;28;20066;-86
2021/08/14 19:30:38;;;;;;;10.57;5.68;;;;;;;;;;5095980;28;20024;-86
2021/08/14 19:33:04;;;;;;;10.82;5.93;;;;;;;;;;5094408;28;20031;-86
2021/08/14 19:35:30;;;;;;;9.60;5.45;;;;;;;;;;5096008;28;20028;-86
2021/08/14 19:37:56;;;;;;;13.55;6.40;;;;;;;;;;5095637;28;20048;-86
2021/08/14 19:40:22;;;;;;;10.40;6.30;;;;;;;;;;5095898;28;20456;-89
2021/08/14 19:42:48;;;;;;;13.00;6.43;;;;;;;;;;5094939;28;20369;-86
2021/08/14 19:45:15;;;;;;;11.65;5.80;;;;;;;;;;5095646;28;20044;-88
2021/08/14 19:47:41;;;;;;;16.00;6.22;;;;;;;;;;5094431;28;20506;-90
2021/08/14 19:50:07;;;;;;;10.13;5.90;;;;;;;;;;5095482;28;20016;-87
2021/08/14 19:52:33;;;;;;;10.57;5.53;;;;;;;;;;5094538;28;20534;-84
2021/08/14 19:55:01;;;;;;;11.23;5.97;;;;;;;;;;5095445;28;20111;-87
2021/08/14 19:57:27;;;;;;;10.85;5.65;;;;;;;;;;5095998;28;20076;-83
2021/08/14 19:59:53;;;;;;;12.45;6.47;;;;;;;;;;5095688;28;20024;-88
2021/08/14 20:02:19;;;;;;;9.40;5.88;;;;;;;;;;5094605;28;20035;-87
2021/08/14 20:04:45;;;;;;;13.27;6.05;;;;;;;;;;5094598;28;20107;-87
2021/08/14 20:07:11;;;;;;;11.50;5.40;;;;;;;;;;5093991;28;20020;-84
2021/08/14 20:09:37;;;;;;;15.38;6.10;;;;;;;;;;5094173;28;20081;-87
2021/08/14 20:12:04;;;;;;;12.60;5.75;;;;;;;;;;5095293;28;20044;-89
2021/08/14 20:14:30;;;;;;;7.88;5.20;;;;;;;;;;5093800;28;20036;-89
2021/08/14 20:16:56;;;;;;;10.60;5.75;;;;;;;;;;5093772;28;20385;-90
2021/08/14 20:19:22;;;;;;;12.93;5.35;;;;;;;;;;5095124;28;20035;-87
2021/08/14 20:21:49;;;;;;;9.57;5.80;;;;;;;;;;5093643;28;20028;-89
2021/08/14 20:24:15;;;;;;;10.05;6.07;;;;;;;;;;5094764;28;20038;-89
2021/08/14 20:26:41;;;;;;;12.35;6.05;;;;;;;;;;5093557;28;20024;-89
2021/08/14 20:29:08;;;;;;;10.30;5.80;;;;;;;;;;5093485;28;20035;-88
2021/08/14 20:31:34;;;;;;;13.93;6.32;;;;;;;;;;5093636;28;20024;-90
2021/08/14 20:34:02;;;;;;;13.15;6.50;;;;;;;;;;5093420;28;20063;-88
2021/08/14 20:36:31;;;;;;;12.25;6.40;;;;;;;;;;5093611;28;20028;-90
2021/08/14 20:38:58;;;;;;;12.48;6.65;;;;;;;;;;5094688;28;20027;-90